createdAt,value
2019-04-07T00:02:30.726Z,40.47
2019-04-07T00:07:36.554Z,40.37
2019-04-07T00:12:45.478Z,41.33
2019-04-07T00:17:50.561Z,43.17
2019-04-07T00:22:55.835Z,44.07
2019-04-07T00:28:01.869Z,43.00
2019-04-07T00:33:08.484Z,43.37
2019-04-07T00:38:15.028Z,42.07
2019-04-07T00:43:20.117Z,38.43
2019-04-07T00:48:27.493Z,38.60
2019-04-07T00:53:33.030Z,37.93
2019-04-07T00:58:38.026Z,38.63
2019-04-07T01:03:43.116Z,37.67
2019-04-07T01:08:48.246Z,36.83
2019-04-07T01:13:53.956Z,35.20
2019-04-07T01:18:59.172Z,36.50
2019-04-07T01:24:04.477Z,34.73
2019-04-07T01:29:10.172Z,36.93
2019-04-07T01:34:15.863Z,38.03
2019-04-07T01:39:21.038Z,37.47
2019-04-07T01:44:37.350Z,38.07
2019-04-07T01:50:17.351Z,37.67
2019-04-07T01:55:37.280Z,40.20
2019-04-07T02:00:55.466Z,38.27
2019-04-07T02:06:25.615Z,35.33
2019-04-07T02:11:52.993Z,38.93
2019-04-07T02:17:36.316Z,38.23
2019-04-07T02:23:06.386Z,38.33
2019-04-07T02:28:36.248Z,39.17
2019-04-07T02:34:07.137Z,41.53
2019-04-07T02:39:31.085Z,42.17
2019-04-07T02:44:50.787Z,41.33
2019-04-07T02:50:24.906Z,44.53
2019-04-07T02:55:42.266Z,42.47
2019-04-07T03:01:06.948Z,39.57
2019-04-07T03:06:40.404Z,40.97
2019-04-07T03:11:42.959Z,46.90
2019-04-07T03:17:20.109Z,37.50
2019-04-07T03:22:50.761Z,40.27
2019-04-07T03:28:16.048Z,42.00
2019-04-07T03:33:42.621Z,42.77
2019-04-07T03:39:01.028Z,45.53
2019-04-07T03:44:22.972Z,47.67
2019-04-07T03:49:57.021Z,44.03
2019-04-07T03:55:20.630Z,43.10
2019-04-07T04:01:33.246Z,40.63
2019-04-07T04:07:22.433Z,43.63
2019-04-07T04:12:32.111Z,44.57
2019-04-07T04:17:37.112Z,49.43
2019-04-07T04:22:43.113Z,44.13
2019-04-07T04:27:48.777Z,45.00
2019-04-07T04:32:54.395Z,42.90
2019-04-07T04:38:00.268Z,43.80
2019-04-07T04:43:05.243Z,44.13
2019-04-07T04:48:10.297Z,45.00
2019-04-07T04:53:15.370Z,45.50
2019-04-07T04:58:39.812Z,44.87
2019-04-07T05:03:48.308Z,47.37
2019-04-07T05:08:54.580Z,45.87
2019-04-07T05:14:00.290Z,44.13
2019-04-07T05:19:06.173Z,48.70
2019-04-07T05:24:11.649Z,48.03
2019-04-07T05:29:17.130Z,45.07
2019-04-07T05:34:23.372Z,45.20
2019-04-07T05:39:28.512Z,45.70
2019-04-07T05:44:34.441Z,45.47
2019-04-07T05:49:39.468Z,45.80
2019-04-07T05:54:45.094Z,47.63
2019-04-07T05:59:51.248Z,48.43
2019-04-07T06:04:58.598Z,47.40
2019-04-07T06:10:03.546Z,46.43
2019-04-07T06:15:09.693Z,44.10
2019-04-07T06:20:15.905Z,47.37
2019-04-07T06:25:22.406Z,44.50
2019-04-07T06:30:30.153Z,47.10
2019-04-07T06:35:36.794Z,46.83
2019-04-07T06:40:42.687Z,40.73
2019-04-07T06:45:55.019Z,43.53
2019-04-07T06:51:17.345Z,40.53
2019-04-07T06:56:34.113Z,41.17
2019-04-07T07:02:13.325Z,41.97
2019-04-07T07:07:56.291Z,44.33
2019-04-07T07:13:28.813Z,40.50
2019-04-07T07:18:42.280Z,43.67
2019-04-07T07:24:00.224Z,43.60
2019-04-07T07:29:06.684Z,41.23
2019-04-07T07:34:12.324Z,38.73
2019-04-07T07:39:22.874Z,38.87
2019-04-07T07:44:27.944Z,38.33
2019-04-07T07:49:35.164Z,36.17
2019-04-07T07:54:39.738Z,31.27
2019-04-07T07:59:44.850Z,31.73
2019-04-07T08:04:50.019Z,28.27
2019-04-07T08:09:56.604Z,26.97
2019-04-07T08:15:01.873Z,25.83
2019-04-07T08:20:07.847Z,25.37
2019-04-07T08:25:13.103Z,28.60
2019-04-07T08:30:18.449Z,26.27
2019-04-07T08:35:24.329Z,26.87
2019-04-07T08:40:29.414Z,24.80
2019-04-07T08:45:35.053Z,23.00
2019-04-07T08:50:41.037Z,22.47
2019-04-07T08:55:48.648Z,23.53
2019-04-07T09:00:54.135Z,25.65
2019-04-07T09:06:01.004Z,23.13
2019-04-07T09:11:12.380Z,24.27
2019-04-07T09:16:37.104Z,24.63
2019-04-07T09:21:51.831Z,22.20
2019-04-07T09:27:06.963Z,22.25
2019-04-07T09:32:33.430Z,22.05
2019-04-07T09:37:54.114Z,22.60
2019-04-07T09:43:21.228Z,21.87
2019-04-07T09:48:44.166Z,25.52
2019-04-07T09:53:59.171Z,24.57
2019-04-07T09:59:25.715Z,25.12
2019-04-07T10:04:42.476Z,22.40
2019-04-07T10:10:11.617Z,21.52
2019-04-07T10:15:30.621Z,22.32
2019-04-07T10:21:03.846Z,21.60
2019-04-07T10:26:14.650Z,21.95
2019-04-07T10:31:47.750Z,19.75
2019-04-07T10:37:17.855Z,21.90
2019-04-07T10:43:01.438Z,22.02
2019-04-07T10:48:31.797Z,23.52
2019-04-07T10:53:58.665Z,23.18
2019-04-07T10:59:25.641Z,28.07
2019-04-07T11:04:49.721Z,28.15
2019-04-07T11:10:37.299Z,30.17
2019-04-07T11:16:02.911Z,27.62
2019-04-07T11:21:34.975Z,26.93
2019-04-07T11:27:13.059Z,28.35
2019-04-07T11:32:37.342Z,26.80
2019-04-07T11:37:49.850Z,28.55
2019-04-07T11:43:20.806Z,27.82
2019-04-07T11:48:39.181Z,29.40
2019-04-07T15:14:25.340Z,26.82
2019-04-07T15:19:33.209Z,30.17
2019-04-07T15:24:49.558Z,28.27
2019-04-07T15:29:55.549Z,29.85
2019-04-07T15:35:02.313Z,29.03
2019-04-07T15:40:10.806Z,30.30
2019-04-07T15:45:16.770Z,30.05
2019-04-07T15:51:04.887Z,30.47
2019-04-07T15:56:14.152Z,30.17
2019-04-07T16:01:19.213Z,31.95
2019-04-07T16:06:36.100Z,30.43
2019-04-07T16:11:43.465Z,30.20
2019-04-07T16:17:02.106Z,30.03
2019-04-07T16:22:11.256Z,30.02
2019-04-07T16:27:17.280Z,30.32
2019-04-07T16:32:46.955Z,28.40
2019-04-07T16:37:53.242Z,30.20
2019-04-07T16:43:11.709Z,29.37
2019-04-07T17:03:51.295Z,29.07
2019-04-07T17:08:57.768Z,30.23
2019-04-07T17:14:04.197Z,30.17
2019-04-07T17:19:09.857Z,29.57
2019-04-07T17:24:15.268Z,28.80
2019-04-07T17:29:22.660Z,30.30
2019-04-07T17:34:29.385Z,29.55
2019-04-07T17:39:40.608Z,29.27
2019-04-07T17:45:06.220Z,29.30
2019-04-07T17:50:40.448Z,31.87
2019-04-07T17:56:22.892Z,31.43
2019-04-07T18:01:56.770Z,29.67
2019-04-07T18:07:34.149Z,29.52
2019-04-07T18:12:49.766Z,29.90
2019-04-07T18:18:14.435Z,29.40
2019-04-07T18:23:34.916Z,30.00
2019-04-07T18:28:55.653Z,31.27
2019-04-07T18:34:31.513Z,29.90
2019-04-07T18:40:07.256Z,31.23
2019-04-07T18:45:48.439Z,32.93
2019-04-07T18:51:23.157Z,32.40
2019-04-07T18:56:59.348Z,32.00
2019-04-07T19:02:44.198Z,27.80
2019-04-07T19:08:36.611Z,28.90
2019-04-07T19:14:30.638Z,29.85
2019-04-07T19:19:36.304Z,28.27
2019-04-07T19:25:23.930Z,27.62
2019-04-07T19:31:00.506Z,29.27
2019-04-07T19:36:36.860Z,29.35
2019-04-07T19:42:07.501Z,30.50
2019-04-07T19:47:32.688Z,29.50
2019-04-07T19:53:11.220Z,29.25
2019-04-07T19:58:38.644Z,29.80
2019-04-07T20:04:05.317Z,28.30
2019-04-07T20:09:45.819Z,28.85
2019-04-07T20:15:17.972Z,28.02
2019-04-07T20:20:40.589Z,27.05
2019-04-07T20:26:03.621Z,27.22
2019-04-07T20:31:20.822Z,30.50
2019-04-07T20:36:54.839Z,30.93
2019-04-07T20:42:05.240Z,32.20
2019-04-07T20:47:34.120Z,31.10
2019-04-07T20:53:10.059Z,37.10
2019-04-07T20:58:41.599Z,31.52
2019-04-07T21:04:00.772Z,30.45
2019-04-07T21:09:25.949Z,29.07
2019-04-07T21:14:49.387Z,30.17
2019-04-07T21:20:14.474Z,27.50
2019-04-07T21:25:29.140Z,29.57
2019-04-07T21:30:48.607Z,29.52
2019-04-07T21:36:22.143Z,28.83
2019-04-07T21:41:54.333Z,29.43
2019-04-07T21:47:25.512Z,27.90
2019-04-07T21:53:22.909Z,29.20
2019-04-07T21:58:39.899Z,30.73
2019-04-07T22:04:01.218Z,27.80
2019-04-07T22:09:26.865Z,26.27
2019-04-07T22:14:32.813Z,27.10
2019-04-07T22:19:44.605Z,29.87
2019-04-07T22:24:57.981Z,30.70
2019-04-07T22:30:06.381Z,26.62
2019-04-07T22:35:18.879Z,27.03
2019-04-07T22:40:25.574Z,28.30
2019-04-07T22:45:32.787Z,26.87
2019-04-07T22:50:38.819Z,29.73
2019-04-07T22:55:44.938Z,26.67
2019-04-07T23:00:50.565Z,31.10
2019-04-07T23:05:58.227Z,30.83
2019-04-07T23:11:04.358Z,26.67
2019-04-07T23:16:14.550Z,32.40
2019-04-07T23:21:17.232Z,37.53
2019-04-07T23:26:22.355Z,33.40
2019-04-07T23:31:29.960Z,31.73
2019-04-07T23:36:34.963Z,32.87
2019-04-07T23:41:41.401Z,34.63
2019-04-07T23:46:46.409Z,33.27
2019-04-07T23:51:51.646Z,31.50
2019-04-07T23:56:56.637Z,29.80
